Global Enterprise — 3FCJ6 — position and weather

sailwx.info

Track history (hours):
 
Tides and Currents Weather Stations Pressure Air Temp Water Temp Dewpoint Dewpoint Depression Visibility Wind Speed Wind Dir Waves Ship Positions

Global Enterprise

Last reported at 2016-Dec-09 11:30 UTC. Time now 2016-Dec-11 00:17 UTC.
Position S 26°49' E 154°26'.

Length 290 m; draft 15.1 m.

Type: Ship. MMSI: 356308000.

Date/timePositionNaut miles runAvg speedWind from/ knotsBaromVisibWave heightAir tempDewpointWater temp
2016-Dec-09 11:30S 26°49' E 154°26'12 9.4
2016-Dec-09 10:16S 27°00' E 154°27'35710.2
2016-Dec-07 23:21S 32°47' E 152°48'810.1
2016-Dec-07 22:33S 32°49' E 152°39'10 9.9
2016-Dec-07 21:33S 32°52' E 152°28'1111.2
2016-Dec-07 20:33S 32°54' E 152°15'1111.4
2016-Dec-07 19:33S 32°57' E 152°02'9 9.2
2016-Dec-07 18:33S 32°57' E 151°51'5 4.9
2016-Dec-07 17:33S 32°54' E 151°46'2 1.6
2016-Dec-07 16:31S 32°53' E 151°45'0 0.0
2016-Dec-07 15:31S 32°53' E 151°45'0 0.0
2016-Dec-07 14:28S 32°53' E 151°45'0 0.0
2016-Dec-07 13:31S 32°53' E 151°45'0 0.0
2016-Dec-07 12:31S 32°53' E 151°45'0 0.0
2016-Dec-07 11:31S 32°53' E 151°45'0 0.0
2016-Dec-07 10:31S 32°53' E 151°45'0 0.0
2016-Dec-07 09:31S 32°53' E 151°45'0 0.0
2016-Dec-07 08:31S 32°53' E 151°45'0 0.0
2016-Dec-07 07:31S 32°53' E 151°45'0 0.0
2016-Dec-07 06:31S 32°53' E 151°45'0 0.0
2016-Dec-07 05:31S 32°53' E 151°45'0 0.0
2016-Dec-07 04:31S 32°53' E 151°45'0 0.0
2016-Dec-07 03:25S 32°53' E 151°45'0 0.0
2016-Dec-07 02:25S 32°53' E 151°45'0 0.0
2016-Dec-07 01:31S 32°53' E 151°45'0 0.0
2016-Dec-07 00:31S 32°53' E 151°45'0 0.0
2016-Dec-06 23:31S 32°53' E 151°45'0 0.0
2016-Dec-06 22:25S 32°53' E 151°45'0 0.0
2016-Dec-06 21:31S 32°53' E 151°45'0 0.0
2016-Dec-06 20:31S 32°53' E 151°45'0 0.0
2016-Dec-06 18:31S 32°53' E 151°45'0 0.0
2016-Dec-06 17:25S 32°53' E 151°45'0 0.0
2016-Dec-06 16:31S 32°53' E 151°45'0 0.0
2016-Dec-06 15:31S 32°53' E 151°45'0 0.0
2016-Dec-06 14:31S 32°53' E 151°45'0 0.0
2016-Dec-06 13:31S 32°53' E 151°45'0 0.0
2016-Dec-06 12:31S 32°53' E 151°45'0 0.0
2016-Dec-06 11:31S 32°53' E 151°45'0 0.0
2016-Dec-06 10:31S 32°53' E 151°45'0 0.0
2016-Dec-06 09:31S 32°53' E 151°45'0 0.0
2016-Dec-06 08:31S 32°53' E 151°45'0 0.0
2016-Dec-06 07:31S 32°53' E 151°45'0 0.0
2016-Dec-06 06:31S 32°53' E 151°45'0 0.0
2016-Dec-06 05:31S 32°53' E 151°45'0 0.0
2016-Dec-06 04:31S 32°53' E 151°45'0 0.0
2016-Dec-06 03:31S 32°53' E 151°45'0 0.0
2016-Dec-06 02:31S 32°53' E 151°45'0 0.0
2016-Dec-06 01:31S 32°53' E 151°45'0 0.0
2016-Dec-06 00:31S 32°53' E 151°45'0 0.0
2016-Dec-05 23:31S 32°53' E 151°45'0 0.0
2016-Dec-05 22:31S 32°53' E 151°45'0 0.0
2016-Dec-05 21:25S 32°53' E 151°45'0 0.0
2016-Dec-05 20:33S 32°53' E 151°45'1 0.7
2016-Dec-05 19:33S 32°53' E 151°46'3 3.4
2016-Dec-05 18:33S 32°54' E 151°50'6 5.8
2016-Dec-05 17:33S 33°00' E 151°52'5 5.3
2016-Dec-05 16:32S 33°05' E 151°49'10 2.5
2016-Dec-05 12:32S 33°13' E 151°41'0 0.2
2016-Dec-05 11:32S 33°13' E 151°41'0 0.0
2016-Dec-05 10:32S 33°13' E 151°41'0 0.0
2016-Dec-05 09:08S 33°13' E 151°41'0 0.0
2016-Dec-05 08:32S 33°13' E 151°41'0 0.0
2016-Dec-05 05:32S 33°13' E 151°41'0 0.1
2016-Dec-05 04:32S 33°13' E 151°41'0 0.1
2016-Dec-05 03:32S 33°13' E 151°41'0 0.1
2016-Dec-05 02:32S 33°13' E 151°41'0 0.0
2016-Dec-05 01:14S 33°13' E 151°41'0 0.1
2016-Dec-05 00:32S 33°13' E 151°41'0 0.0
2016-Dec-04 19:08S 33°12' E 151°41'0 0.2
2016-Dec-04 18:32S 33°13' E 151°41'0 0.1
2016-Dec-04 17:32S 33°13' E 151°41'0 0.0
2016-Dec-04 16:32S 33°13' E 151°41'0 0.1
2016-Dec-04 15:32S 33°13' E 151°41'0 0.0
2016-Dec-04 14:32S 33°13' E 151°41'  
2016-Dec-02 09:20S 33°13' E 151°41'0 0.0
2016-Dec-02 07:32S 33°13' E 151°41'0 0.1
2016-Dec-02 06:33S 33°13' E 151°41'3 3.0
2016-Dec-02 05:33S 33°12' E 151°45'1010.4
2016-Dec-02 04:33S 33°04' E 151°53'1211.8
2016-Dec-02 03:33S 32°56' E 152°02'1313.3
2016-Dec-02 02:33S 32°53' E 152°18'1010.3
2016-Dec-02 01:33S 32°51' E 152°30'1413.9
2016-Dec-02 00:33S 32°48' E 152°46'1413.8
2016-Dec-01 23:33S 32°42' E 153°01'1413.8
2016-Dec-01 22:33S 32°33' E 153°13'1313.2
2016-Dec-01 21:33S 32°25' E 153°25'1612.7
2016-Dec-01 20:17S 32°14' E 153°40'3412.0
2016-Dec-01 17:27S 31°47' E 154°03'18113.0
2016-Dec-01 03:33S 28°49' E 154°41'  
Track history (hours):
 
Tides and Currents Weather Stations Pressure Air Temp Water Temp Dewpoint Dewpoint Depression Visibility Wind Speed Wind Dir Waves Ship Positions

Global Enterprise

Last reported at 2016-Dec-09 11:30 UTC. Time now 2016-Dec-11 00:17 UTC.
Position S 26°49' E 154°26'.

Length 290 m; draft 15.1 m.

Type: Ship. MMSI: 356308000.

Date/timePositionNaut miles runAvg speedWind from/ knotsBaromVisibWave heightAir tempDewpointWater temp
2016-Dec-09 11:30S 26°49' E 154°26'12 9.4
2016-Dec-09 10:16S 27°00' E 154°27'35710.2
2016-Dec-07 23:21S 32°47' E 152°48'810.1
2016-Dec-07 22:33S 32°49' E 152°39'10 9.9
2016-Dec-07 21:33S 32°52' E 152°28'1111.2
2016-Dec-07 20:33S 32°54' E 152°15'1111.4
2016-Dec-07 19:33S 32°57' E 152°02'9 9.2
2016-Dec-07 18:33S 32°57' E 151°51'5 4.9
2016-Dec-07 17:33S 32°54' E 151°46'2 1.6
2016-Dec-07 16:31S 32°53' E 151°45'0 0.0
2016-Dec-07 15:31S 32°53' E 151°45'0 0.0
2016-Dec-07 14:28S 32°53' E 151°45'0 0.0
2016-Dec-07 13:31S 32°53' E 151°45'0 0.0
2016-Dec-07 12:31S 32°53' E 151°45'0 0.0
2016-Dec-07 11:31S 32°53' E 151°45'0 0.0
2016-Dec-07 10:31S 32°53' E 151°45'0 0.0
2016-Dec-07 09:31S 32°53' E 151°45'0 0.0
2016-Dec-07 08:31S 32°53' E 151°45'0 0.0
2016-Dec-07 07:31S 32°53' E 151°45'0 0.0
2016-Dec-07 06:31S 32°53' E 151°45'0 0.0
2016-Dec-07 05:31S 32°53' E 151°45'0 0.0
2016-Dec-07 04:31S 32°53' E 151°45'0 0.0
2016-Dec-07 03:25S 32°53' E 151°45'0 0.0
2016-Dec-07 02:25S 32°53' E 151°45'0 0.0
2016-Dec-07 01:31S 32°53' E 151°45'0 0.0
2016-Dec-07 00:31S 32°53' E 151°45'0 0.0
2016-Dec-06 23:31S 32°53' E 151°45'0 0.0
2016-Dec-06 22:25S 32°53' E 151°45'0 0.0
2016-Dec-06 21:31S 32°53' E 151°45'0 0.0
2016-Dec-06 20:31S 32°53' E 151°45'0 0.0
2016-Dec-06 18:31S 32°53' E 151°45'0 0.0
2016-Dec-06 17:25S 32°53' E 151°45'0 0.0
2016-Dec-06 16:31S 32°53' E 151°45'0 0.0
2016-Dec-06 15:31S 32°53' E 151°45'0 0.0
2016-Dec-06 14:31S 32°53' E 151°45'0 0.0
2016-Dec-06 13:31S 32°53' E 151°45'0 0.0
2016-Dec-06 12:31S 32°53' E 151°45'0 0.0
2016-Dec-06 11:31S 32°53' E 151°45'0 0.0
2016-Dec-06 10:31S 32°53' E 151°45'0 0.0
2016-Dec-06 09:31S 32°53' E 151°45'0 0.0
2016-Dec-06 08:31S 32°53' E 151°45'0 0.0
2016-Dec-06 07:31S 32°53' E 151°45'0 0.0
2016-Dec-06 06:31S 32°53' E 151°45'0 0.0
2016-Dec-06 05:31S 32°53' E 151°45'0 0.0
2016-Dec-06 04:31S 32°53' E 151°45'0 0.0
2016-Dec-06 03:31S 32°53' E 151°45'0 0.0
2016-Dec-06 02:31S 32°53' E 151°45'0 0.0
2016-Dec-06 01:31S 32°53' E 151°45'0 0.0
2016-Dec-06 00:31S 32°53' E 151°45'0 0.0
2016-Dec-05 23:31S 32°53' E 151°45'0 0.0
2016-Dec-05 22:31S 32°53' E 151°45'0 0.0
2016-Dec-05 21:25S 32°53' E 151°45'0 0.0
2016-Dec-05 20:33S 32°53' E 151°45'1 0.7
2016-Dec-05 19:33S 32°53' E 151°46'3 3.4
2016-Dec-05 18:33S 32°54' E 151°50'6 5.8
2016-Dec-05 17:33S 33°00' E 151°52'5 5.3
2016-Dec-05 16:32S 33°05' E 151°49'10 2.5
2016-Dec-05 12:32S 33°13' E 151°41'0 0.2
2016-Dec-05 11:32S 33°13' E 151°41'0 0.0
2016-Dec-05 10:32S 33°13' E 151°41'0 0.0
2016-Dec-05 09:08S 33°13' E 151°41'0 0.0
2016-Dec-05 08:32S 33°13' E 151°41'0 0.0
2016-Dec-05 05:32S 33°13' E 151°41'0 0.1
2016-Dec-05 04:32S 33°13' E 151°41'0 0.1
2016-Dec-05 03:32S 33°13' E 151°41'0 0.1
2016-Dec-05 02:32S 33°13' E 151°41'0 0.0
2016-Dec-05 01:14S 33°13' E 151°41'0 0.1
2016-Dec-05 00:32S 33°13' E 151°41'0 0.0
2016-Dec-04 19:08S 33°12' E 151°41'0 0.2
2016-Dec-04 18:32S 33°13' E 151°41'0 0.1
2016-Dec-04 17:32S 33°13' E 151°41'0 0.0
2016-Dec-04 16:32S 33°13' E 151°41'0 0.1
2016-Dec-04 15:32S 33°13' E 151°41'0 0.0
2016-Dec-04 14:32S 33°13' E 151°41'  
2016-Dec-02 09:20S 33°13' E 151°41'0 0.0
2016-Dec-02 07:32S 33°13' E 151°41'0 0.1
2016-Dec-02 06:33S 33°13' E 151°41'3 3.0
2016-Dec-02 05:33S 33°12' E 151°45'1010.4
2016-Dec-02 04:33S 33°04' E 151°53'1211.8
2016-Dec-02 03:33S 32°56' E 152°02'1313.3
2016-Dec-02 02:33S 32°53' E 152°18'1010.3
2016-Dec-02 01:33S 32°51' E 152°30'1413.9
2016-Dec-02 00:33S 32°48' E 152°46'1413.8
2016-Dec-01 23:33S 32°42' E 153°01'1413.8
2016-Dec-01 22:33S 32°33' E 153°13'1313.2
2016-Dec-01 21:33S 32°25' E 153°25'1612.7
2016-Dec-01 20:17S 32°14' E 153°40'3412.0
2016-Dec-01 17:27S 31°47' E 154°03'18113.0
2016-Dec-01 03:33S 28°49' E 154°41'  

Dump ship's entire track history